sensor_id;sensor_type;location;lat;lon;timestamp;pressure;altitude;pressure_sealevel;temperature;humidity
70833;BME280;58452;59.418;17.962;2023-03-25T00:02:07;98486.78;;;1.25;94.54
70833;BME280;58452;59.418;17.962;2023-03-25T00:04:33;98494.16;;;1.28;94.19
70833;BME280;58452;59.418;17.962;2023-03-25T00:06:59;98503.25;;;1.21;94.42
70833;BME280;58452;59.418;17.962;2023-03-25T00:09:25;98507.81;;;1.08;93.91
70833;BME280;58452;59.418;17.962;2023-03-25T00:11:51;98533.50;;;0.95;93.75
70833;BME280;58452;59.418;17.962;2023-03-25T00:14:17;98534.41;;;1.04;93.88
70833;BME280;58452;59.418;17.962;2023-03-25T00:16:43;98546.84;;;1.07;94.52
70833;BME280;58452;59.418;17.962;2023-03-25T00:19:13;98549.00;;;0.92;93.67
70833;BME280;58452;59.418;17.962;2023-03-25T00:21:40;98562.75;;;0.89;94.32
70833;BME280;58452;59.418;17.962;2023-03-25T00:24:09;98567.72;;;0.72;94.73
70833;BME280;58452;59.418;17.962;2023-03-25T00:26:37;98574.66;;;0.60;94.96
70833;BME280;58452;59.418;17.962;2023-03-25T00:29:09;98587.97;;;0.53;94.83
70833;BME280;58452;59.418;17.962;2023-03-25T00:31:35;98586.25;;;0.53;95.53
70833;BME280;58452;59.418;17.962;2023-03-25T00:34:00;98603.59;;;0.48;96.50
70833;BME280;58452;59.418;17.962;2023-03-25T00:36:26;98622.31;;;0.47;96.74
70833;BME280;58452;59.418;17.962;2023-03-25T00:38:52;98620.28;;;0.41;96.31
70833;BME280;58452;59.418;17.962;2023-03-25T00:41:23;98635.41;;;0.52;96.59
70833;BME280;58452;59.418;17.962;2023-03-25T00:43:56;98643.53;;;0.46;95.59
70833;BME280;58452;59.418;17.962;2023-03-25T00:46:23;98649.28;;;0.48;96.00
70833;BME280;58452;59.418;17.962;2023-03-25T00:48:51;98649.13;;;0.40;95.53
70833;BME280;58452;59.418;17.962;2023-03-25T00:51:17;98659.03;;;0.43;96.00
70833;BME280;58452;59.418;17.962;2023-03-25T00:53:46;98669.16;;;0.43;95.40
70833;BME280;58452;59.418;17.962;2023-03-25T00:56:12;98688.91;;;0.39;95.68
70833;BME280;58452;59.418;17.962;2023-03-25T00:58:38;98683.69;;;0.41;96.11
70833;BME280;58452;59.418;17.962;2023-03-25T01:01:28;98695.28;;;0.34;95.08
70833;BME280;58452;59.418;17.962;2023-03-25T01:03:57;98695.84;;;0.37;95.86
70833;BME280;58452;59.418;17.962;2023-03-25T01:06:33;98700.81;;;0.39;94.93
70833;BME280;58452;59.418;17.962;2023-03-25T01:09:01;98710.13;;;0.38;94.46
70833;BME280;58452;59.418;17.962;2023-03-25T01:11:29;98713.59;;;0.37;94.24
70833;BME280;58452;59.418;17.962;2023-03-25T01:13:59;98721.63;;;0.33;95.19
70833;BME280;58452;59.418;17.962;2023-03-25T01:16:25;98721.19;;;0.28;95.05
70833;BME280;58452;59.418;17.962;2023-03-25T01:18:51;98729.72;;;0.27;96.10
70833;BME280;58452;59.418;17.962;2023-03-25T01:21:17;98738.25;;;0.26;96.47
70833;BME280;58452;59.418;17.962;2023-03-25T01:23:42;98748.81;;;0.31;96.38
70833;BME280;58452;59.418;17.962;2023-03-25T01:26:08;98757.19;;;0.22;95.56
70833;BME280;58452;59.418;17.962;2023-03-25T01:28:33;98762.09;;;0.14;94.88
70833;BME280;58452;59.418;17.962;2023-03-25T01:31:04;98774.00;;;0.23;95.60
70833;BME280;58452;59.418;17.962;2023-03-25T01:33:30;98788.41;;;0.22;95.28
70833;BME280;58452;59.418;17.962;2023-03-25T01:35:57;98786.09;;;0.10;95.58
70833;BME280;58452;59.418;17.962;2023-03-25T01:38:23;98793.13;;;0.06;95.11
70833;BME280;58452;59.418;17.962;2023-03-25T01:40:49;98788.63;;;0.10;95.28
70833;BME280;58452;59.418;17.962;2023-03-25T01:43:16;98800.38;;;0.11;95.86
70833;BME280;58452;59.418;17.962;2023-03-25T01:45:42;98805.44;;;0.11;95.50
70833;BME280;58452;59.418;17.962;2023-03-25T01:48:17;98816.16;;;0.14;96.00
70833;BME280;58452;59.418;17.962;2023-03-25T01:50:48;98823.22;;;0.11;95.90
70833;BME280;58452;59.418;17.962;2023-03-25T01:53:15;98832.03;;;0.16;96.17
70833;BME280;58452;59.418;17.962;2023-03-25T01:55:42;98829.19;;;0.10;95.22
70833;BME280;58452;59.418;17.962;2023-03-25T01:58:11;98833.09;;;0.14;95.17
70833;BME280;58452;59.418;17.962;2023-03-25T02:00:42;98842.88;;;0.18;95.63
70833;BME280;58452;59.418;17.962;2023-03-25T02:03:09;98846.09;;;0.20;96.18
70833;BME280;58452;59.418;17.962;2023-03-25T02:05:45;98856.19;;;0.11;95.65
70833;BME280;58452;59.418;17.962;2023-03-25T02:08:13;98853.19;;;0.06;95.76
70833;BME280;58452;59.418;17.962;2023-03-25T02:10:41;98859.13;;;0.16;95.91
70833;BME280;58452;59.418;17.962;2023-03-25T02:13:09;98873.94;;;0.11;95.22
70833;BME280;58452;59.418;17.962;2023-03-25T02:15:55;98873.28;;;-0.03;93.61
70833;BME280;58452;59.418;17.962;2023-03-25T02:18:39;98882.53;;;-0.13;93.36
70833;BME280;58452;59.418;17.962;2023-03-25T02:27:11;98888.44;;;-0.23;92.69
70833;BME280;58452;59.418;17.962;2023-03-25T02:41:07;98908.13;;;-0.27;89.42
70833;BME280;58452;59.418;17.962;2023-03-25T02:43:56;98920.34;;;-0.32;89.28
70833;BME280;58452;59.418;17.962;2023-03-25T02:46:27;98932.34;;;-0.34;89.22
70833;BME280;58452;59.418;17.962;2023-03-25T02:51:30;98943.06;;;-0.53;88.60
70833;BME280;58452;59.418;17.962;2023-03-25T02:54:01;98943.88;;;-0.41;88.37
70833;BME280;58452;59.418;17.962;2023-03-25T02:56:28;98944.53;;;-0.28;88.12
70833;BME280;58452;59.418;17.962;2023-03-25T02:58:58;98953.63;;;-0.36;88.00
70833;BME280;58452;59.418;17.962;2023-03-25T03:01:25;98949.84;;;-0.31;88.63
70833;BME280;58452;59.418;17.962;2023-03-25T03:03:54;98960.31;;;-0.24;89.04
70833;BME280;58452;59.418;17.962;2023-03-25T03:06:21;98955.25;;;-0.24;88.55
70833;BME280;58452;59.418;17.962;2023-03-25T03:11:17;98956.63;;;-0.09;89.12
70833;BME280;58452;59.418;17.962;2023-03-25T03:22:15;98970.59;;;-0.37;88.55
70833;BME280;58452;59.418;17.962;2023-03-25T03:24:52;98987.16;;;-0.22;88.70
70833;BME280;58452;59.418;17.962;2023-03-25T03:27:28;98975.88;;;-0.29;88.19
70833;BME280;58452;59.418;17.962;2023-03-25T03:30:31;98979.44;;;-0.20;88.16
70833;BME280;58452;59.418;17.962;2023-03-25T03:35:44;98993.72;;;-0.08;87.29
70833;BME280;58452;59.418;17.962;2023-03-25T03:38:17;98991.06;;;-0.18;87.04
70833;BME280;58452;59.418;17.962;2023-03-25T03:40:50;98991.31;;;-0.10;87.30
70833;BME280;58452;59.418;17.962;2023-03-25T03:43:29;98985.19;;;-0.07;86.72
70833;BME280;58452;59.418;17.962;2023-03-25T03:46:00;98993.34;;;0.08;86.66
70833;BME280;58452;59.418;17.962;2023-03-25T03:48:34;98982.25;;;0.20;85.80
70833;BME280;58452;59.418;17.962;2023-03-25T03:51:09;98995.19;;;0.17;86.02
70833;BME280;58452;59.418;17.962;2023-03-25T03:53:40;99000.72;;;0.22;86.04
70833;BME280;58452;59.418;17.962;2023-03-25T03:56:17;99007.88;;;0.17;86.17
70833;BME280;58452;59.418;17.962;2023-03-25T03:58:47;99015.50;;;-0.06;86.98
70833;BME280;58452;59.418;17.962;2023-03-25T04:03:52;99018.09;;;0.26;87.47
70833;BME280;58452;59.418;17.962;2023-03-25T04:09:19;99038.09;;;0.52;86.83
70833;BME280;58452;59.418;17.962;2023-03-25T04:11:58;99041.47;;;0.41;86.89
70833;BME280;58452;59.418;17.962;2023-03-25T04:14:25;99056.53;;;0.22;86.65
70833;BME280;58452;59.418;17.962;2023-03-25T04:16:50;99055.94;;;0.18;87.39
70833;BME280;58452;59.418;17.962;2023-03-25T04:19:17;99058.69;;;0.26;87.01
70833;BME280;58452;59.418;17.962;2023-03-25T04:21:44;99050.31;;;0.15;87.18
70833;BME280;58452;59.418;17.962;2023-03-25T04:24:12;99039.66;;;0.32;86.07
70833;BME280;58452;59.418;17.962;2023-03-25T04:26:41;99039.88;;;0.40;84.47
70833;BME280;58452;59.418;17.962;2023-03-25T04:29:07;99053.97;;;0.33;84.00
70833;BME280;58452;59.418;17.962;2023-03-25T04:31:34;99051.19;;;0.36;84.30
70833;BME280;58452;59.418;17.962;2023-03-25T04:34:00;99052.31;;;0.43;84.09
70833;BME280;58452;59.418;17.962;2023-03-25T04:36:26;99053.72;;;0.36;83.57
70833;BME280;58452;59.418;17.962;2023-03-25T04:39:02;99054.50;;;0.47;83.64
70833;BME280;58452;59.418;17.962;2023-03-25T04:41:28;99054.38;;;0.49;83.92
70833;BME280;58452;59.418;17.962;2023-03-25T04:43:53;99052.66;;;0.49;82.86
70833;BME280;58452;59.418;17.962;2023-03-25T04:46:19;99057.81;;;0.48;83.22
70833;BME280;58452;59.418;17.962;2023-03-25T04:48:45;99064.78;;;0.46;83.32
70833;BME280;58452;59.418;17.962;2023-03-25T04:51:12;99060.16;;;0.51;83.31
70833;BME280;58452;59.418;17.962;2023-03-25T04:53:39;99054.63;;;0.46;83.78
70833;BME280;58452;59.418;17.962;2023-03-25T04:56:06;99065.47;;;0.37;83.71
70833;BME280;58452;59.418;17.962;2023-03-25T04:58:37;99075.84;;;0.45;83.80
70833;BME280;58452;59.418;17.962;2023-03-25T05:01:03;99082.44;;;0.47;83.77
70833;BME280;58452;59.418;17.962;2023-03-25T05:03:35;99098.69;;;0.12;85.07
70833;BME280;58452;59.418;17.962;2023-03-25T05:06:04;99119.81;;;0.23;85.21
70833;BME280;58452;59.418;17.962;2023-03-25T05:08:30;99115.06;;;0.30;85.17
70833;BME280;58452;59.418;17.962;2023-03-25T05:10:55;99116.44;;;0.34;85.88
70833;BME280;58452;59.418;17.962;2023-03-25T05:13:21;99126.34;;;0.48;85.28
70833;BME280;58452;59.418;17.962;2023-03-25T05:15:46;99123.59;;;0.51;85.36
70833;BME280;58452;59.418;17.962;2023-03-25T05:18:13;99124.25;;;0.64;84.11
70833;BME280;58452;59.418;17.962;2023-03-25T05:20:41;99121.72;;;0.64;83.86
70833;BME280;58452;59.418;17.962;2023-03-25T05:23:09;99113.19;;;0.65;84.43
70833;BME280;58452;59.418;17.962;2023-03-25T05:25:38;99119.19;;;0.64;84.53
70833;BME280;58452;59.418;17.962;2023-03-25T05:28:04;99127.00;;;0.72;84.38
70833;BME280;58452;59.418;17.962;2023-03-25T05:30:35;99121.44;;;0.78;84.08
70833;BME280;58452;59.418;17.962;2023-03-25T05:33:04;99114.09;;;0.64;84.02
70833;BME280;58452;59.418;17.962;2023-03-25T05:35:30;99106.03;;;0.59;83.71
70833;BME280;58452;59.418;17.962;2023-03-25T05:37:56;99110.91;;;0.62;83.86
70833;BME280;58452;59.418;17.962;2023-03-25T05:40:22;99103.94;;;0.64;83.91
70833;BME280;58452;59.418;17.962;2023-03-25T05:42:47;99103.38;;;0.61;83.54
70833;BME280;58452;59.418;17.962;2023-03-25T05:45:14;99120.47;;;0.59;84.09
70833;BME280;58452;59.418;17.962;2023-03-25T05:47:41;99116.91;;;0.50;83.89
70833;BME280;58452;59.418;17.962;2023-03-25T05:50:07;99118.16;;;0.56;84.26
70833;BME280;58452;59.418;17.962;2023-03-25T05:52:33;99132.34;;;0.69;84.13
70833;BME280;58452;59.418;17.962;2023-03-25T05:54:59;99138.66;;;0.75;84.65
70833;BME280;58452;59.418;17.962;2023-03-25T05:57:25;99149.84;;;0.83;84.15
70833;BME280;58452;59.418;17.962;2023-03-25T05:59:50;99148.53;;;0.89;83.32
70833;BME280;58452;59.418;17.962;2023-03-25T06:02:16;99143.38;;;0.79;82.93
70833;BME280;58452;59.418;17.962;2023-03-25T06:04:42;99145.47;;;0.74;83.42
70833;BME280;58452;59.418;17.962;2023-03-25T06:07:12;99146.59;;;0.81;83.55
70833;BME280;58452;59.418;17.962;2023-03-25T06:09:41;99147.31;;;0.83;82.91
70833;BME280;58452;59.418;17.962;2023-03-25T06:12:14;99150.75;;;0.93;83.61
70833;BME280;58452;59.418;17.962;2023-03-25T06:14:41;99157.75;;;1.01;82.68
70833;BME280;58452;59.418;17.962;2023-03-25T06:17:13;99161.53;;;1.07;82.54
70833;BME280;58452;59.418;17.962;2023-03-25T06:19:39;99172.88;;;1.14;83.18
70833;BME280;58452;59.418;17.962;2023-03-25T06:22:06;99173.53;;;1.16;83.12
70833;BME280;58452;59.418;17.962;2023-03-25T06:24:37;99184.72;;;1.24;82.78
70833;BME280;58452;59.418;17.962;2023-03-25T06:27:05;99175.78;;;1.30;82.94
70833;BME280;58452;59.418;17.962;2023-03-25T06:29:34;99185.28;;;1.28;82.31
70833;BME280;58452;59.418;17.962;2023-03-25T06:32:03;99192.69;;;1.20;82.35
70833;BME280;58452;59.418;17.962;2023-03-25T06:34:29;99188.44;;;1.20;81.71
70833;BME280;58452;59.418;17.962;2023-03-25T06:36:57;99186.53;;;0.90;82.58
70833;BME280;58452;59.418;17.962;2023-03-25T06:39:23;99184.19;;;1.10;81.96
70833;BME280;58452;59.418;17.962;2023-03-25T06:41:48;99187.94;;;0.83;81.85
70833;BME280;58452;59.418;17.962;2023-03-25T06:44:14;99192.09;;;0.84;81.07
70833;BME280;58452;59.418;17.962;2023-03-25T06:46:39;99193.13;;;0.60;81.54
70833;BME280;58452;59.418;17.962;2023-03-25T06:49:05;99194.44;;;0.32;81.55
70833;BME280;58452;59.418;17.962;2023-03-25T06:51:30;99196.72;;;0.24;82.89
70833;BME280;58452;59.418;17.962;2023-03-25T06:53:56;99200.63;;;0.17;83.28
70833;BME280;58452;59.418;17.962;2023-03-25T06:56:21;99209.19;;;0.38;83.39
70833;BME280;58452;59.418;17.962;2023-03-25T06:58:47;99204.34;;;0.57;82.89
70833;BME280;58452;59.418;17.962;2023-03-25T07:01:12;99202.03;;;0.65;83.04
70833;BME280;58452;59.418;17.962;2023-03-25T07:03:37;99208.94;;;0.63;82.46
70833;BME280;58452;59.418;17.962;2023-03-25T07:06:06;99202.38;;;0.72;81.84
70833;BME280;58452;59.418;17.962;2023-03-25T07:08:32;99214.00;;;0.74;81.73
70833;BME280;58452;59.418;17.962;2023-03-25T07:11:03;99222.34;;;0.87;82.27
70833;BME280;58452;59.418;17.962;2023-03-25T07:13:28;99220.47;;;0.78;81.92
70833;BME280;58452;59.418;17.962;2023-03-25T07:15:56;99217.50;;;0.73;82.38
70833;BME280;58452;59.418;17.962;2023-03-25T07:18:21;99219.91;;;0.86;81.85
70833;BME280;58452;59.418;17.962;2023-03-25T07:20:47;99231.78;;;0.74;81.48
70833;BME280;58452;59.418;17.962;2023-03-25T07:23:12;99223.03;;;0.67;81.95
70833;BME280;58452;59.418;17.962;2023-03-25T07:25:38;99224.97;;;0.86;81.90
70833;BME280;58452;59.418;17.962;2023-03-25T07:28:03;99224.63;;;0.90;81.88
70833;BME280;58452;59.418;17.962;2023-03-25T07:30:29;99230.41;;;0.81;82.01
70833;BME280;58452;59.418;17.962;2023-03-25T07:32:54;99223.00;;;0.89;81.98
70833;BME280;58452;59.418;17.962;2023-03-25T07:35:20;99226.00;;;1.06;82.32
70833;BME280;58452;59.418;17.962;2023-03-25T07:37:45;99221.59;;;0.96;81.84
70833;BME280;58452;59.418;17.962;2023-03-25T07:40:11;99218.50;;;0.93;81.74
70833;BME280;58452;59.418;17.962;2023-03-25T07:42:36;99224.66;;;0.68;81.71
70833;BME280;58452;59.418;17.962;2023-03-25T07:45:04;99230.78;;;0.77;82.91
70833;BME280;58452;59.418;17.962;2023-03-25T07:47:29;99241.94;;;0.96;82.17
70833;BME280;58452;59.418;17.962;2023-03-25T07:49:55;99228.28;;;1.09;82.26
70833;BME280;58452;59.418;17.962;2023-03-25T07:52:20;99238.19;;;1.23;82.92
70833;BME280;58452;59.418;17.962;2023-03-25T07:54:46;99235.06;;;1.30;82.49
70833;BME280;58452;59.418;17.962;2023-03-25T07:57:11;99234.91;;;1.43;82.43
70833;BME280;58452;59.418;17.962;2023-03-25T07:59:37;99233.03;;;1.45;81.53
70833;BME280;58452;59.418;17.962;2023-03-25T08:02:03;99240.31;;;1.50;81.51
70833;BME280;58452;59.418;17.962;2023-03-25T08:04:28;99234.47;;;1.59;81.44
70833;BME280;58452;59.418;17.962;2023-03-25T08:06:54;99242.00;;;1.60;80.73
70833;BME280;58452;59.418;17.962;2023-03-25T08:09:20;99238.72;;;1.69;80.90
70833;BME280;58452;59.418;17.962;2023-03-25T08:11:46;99237.53;;;1.73;80.94
70833;BME280;58452;59.418;17.962;2023-03-25T08:14:11;99248.66;;;1.72;79.98
70833;BME280;58452;59.418;17.962;2023-03-25T08:16:37;99242.94;;;1.59;79.94
70833;BME280;58452;59.418;17.962;2023-03-25T08:19:02;99247.66;;;1.32;80.22
70833;BME280;58452;59.418;17.962;2023-03-25T08:21:28;99250.00;;;1.13;81.59
70833;BME280;58452;59.418;17.962;2023-03-25T08:23:54;99251.56;;;1.25;81.61
70833;BME280;58452;59.418;17.962;2023-03-25T08:26:27;99252.22;;;1.06;82.78
70833;BME280;58452;59.418;17.962;2023-03-25T08:28:53;99251.47;;;1.26;82.50
70833;BME280;58452;59.418;17.962;2023-03-25T08:31:22;99245.84;;;1.43;82.58
70833;BME280;58452;59.418;17.962;2023-03-25T08:33:47;99244.09;;;1.55;82.45
70833;BME280;58452;59.418;17.962;2023-03-25T08:36:13;99248.94;;;1.58;80.87
70833;BME280;58452;59.418;17.962;2023-03-25T08:38:44;99243.13;;;1.67;80.72
70833;BME280;58452;59.418;17.962;2023-03-25T08:41:10;99252.66;;;1.54;79.33
70833;BME280;58452;59.418;17.962;2023-03-25T08:43:35;99247.81;;;1.51;79.64
70833;BME280;58452;59.418;17.962;2023-03-25T08:46:00;99255.31;;;1.53;79.83
70833;BME280;58452;59.418;17.962;2023-03-25T08:48:26;99248.38;;;1.55;79.71
70833;BME280;58452;59.418;17.962;2023-03-25T08:50:51;99247.84;;;1.40;80.42
70833;BME280;58452;59.418;17.962;2023-03-25T08:53:17;99243.22;;;1.45;80.91
70833;BME280;58452;59.418;17.962;2023-03-25T08:55:43;99248.63;;;1.52;80.78
70833;BME280;58452;59.418;17.962;2023-03-25T08:58:08;99249.09;;;1.45;81.30
70833;BME280;58452;59.418;17.962;2023-03-25T09:00:35;99252.19;;;1.60;81.35
70833;BME280;58452;59.418;17.962;2023-03-25T09:03:03;99247.03;;;1.71;81.34
70833;BME280;58452;59.418;17.962;2023-03-25T09:05:28;99247.41;;;1.35;81.27
70833;BME280;58452;59.418;17.962;2023-03-25T09:07:54;99245.06;;;1.43;82.23
70833;BME280;58452;59.418;17.962;2023-03-25T09:10:20;99242.25;;;1.57;82.53
70833;BME280;58452;59.418;17.962;2023-03-25T09:12:45;99241.19;;;1.60;82.23
70833;BME280;58452;59.418;17.962;2023-03-25T09:15:11;99246.88;;;1.52;82.26
70833;BME280;58452;59.418;17.962;2023-03-25T09:17:37;99251.75;;;1.44;83.00
70833;BME280;58452;59.418;17.962;2023-03-25T09:20:04;99251.50;;;1.47;82.83
70833;BME280;58452;59.418;17.962;2023-03-25T09:22:33;99249.31;;;1.54;82.65
70833;BME280;58452;59.418;17.962;2023-03-25T09:24:58;99248.28;;;1.45;82.84
70833;BME280;58452;59.418;17.962;2023-03-25T09:27:24;99251.53;;;1.36;83.27
70833;BME280;58452;59.418;17.962;2023-03-25T09:29:49;99256.66;;;1.25;83.62
70833;BME280;58452;59.418;17.962;2023-03-25T09:32:15;99253.88;;;1.39;83.88
70833;BME280;58452;59.418;17.962;2023-03-25T09:34:42;99245.28;;;1.40;83.47
70833;BME280;58452;59.418;17.962;2023-03-25T09:37:09;99247.22;;;1.16;83.14
70833;BME280;58452;59.418;17.962;2023-03-25T09:39:34;99243.81;;;1.37;83.87
70833;BME280;58452;59.418;17.962;2023-03-25T09:45:09;99246.56;;;1.45;82.97
70833;BME280;58452;59.418;17.962;2023-03-25T09:47:41;99244.59;;;1.49;82.75
70833;BME280;58452;59.418;17.962;2023-03-25T09:50:13;99241.84;;;1.41;83.13
70833;BME280;58452;59.418;17.962;2023-03-25T09:55:40;99247.13;;;1.49;82.82
70833;BME280;58452;59.418;17.962;2023-03-25T10:01:11;99255.38;;;1.62;82.80
70833;BME280;58452;59.418;17.962;2023-03-25T10:13:02;99264.53;;;1.65;83.19
70833;BME280;58452;59.418;17.962;2023-03-25T10:15:47;99253.31;;;1.67;83.39
70833;BME280;58452;59.418;17.962;2023-03-25T10:26:55;99226.16;;;1.88;82.85
70833;BME280;58452;59.418;17.962;2023-03-25T10:32:40;99231.09;;;1.69;83.15
70833;BME280;58452;59.418;17.962;2023-03-25T10:35:11;99230.78;;;1.63;83.45
70833;BME280;58452;59.418;17.962;2023-03-25T10:37:40;99231.88;;;1.49;84.02
70833;BME280;58452;59.418;17.962;2023-03-25T10:40:13;99234.56;;;1.36;83.93
70833;BME280;58452;59.418;17.962;2023-03-25T10:42:47;99237.34;;;1.33;84.63
70833;BME280;58452;59.418;17.962;2023-03-25T10:45:20;99234.91;;;1.43;84.25
70833;BME280;58452;59.418;17.962;2023-03-25T10:47:47;99237.06;;;1.47;84.53
70833;BME280;58452;59.418;17.962;2023-03-25T10:50:15;99235.78;;;1.53;84.16
70833;BME280;58452;59.418;17.962;2023-03-25T10:52:42;99236.84;;;1.39;83.45
70833;BME280;58452;59.418;17.962;2023-03-25T10:55:20;99231.66;;;1.41;84.19
70833;BME280;58452;59.418;17.962;2023-03-25T10:57:49;99230.81;;;1.52;83.92
70833;BME280;58452;59.418;17.962;2023-03-25T11:00:16;99230.47;;;1.56;84.13
70833;BME280;58452;59.418;17.962;2023-03-25T11:02:46;99215.34;;;1.43;83.91
70833;BME280;58452;59.418;17.962;2023-03-25T11:05:16;99205.47;;;1.29;83.79
70833;BME280;58452;59.418;17.962;2023-03-25T11:08:03;99205.13;;;1.34;84.37
70833;BME280;58452;59.418;17.962;2023-03-25T11:10:31;99203.28;;;1.25;84.04
70833;BME280;58452;59.418;17.962;2023-03-25T11:12:59;99193.41;;;1.11;84.25
70833;BME280;58452;59.418;17.962;2023-03-25T11:15:36;99189.94;;;1.12;84.13
70833;BME280;58452;59.418;17.962;2023-03-25T11:20:51;99194.41;;;0.87;85.23
70833;BME280;58452;59.418;17.962;2023-03-25T11:25:43;99190.69;;;1.03;85.13
70833;BME280;58452;59.418;17.962;2023-03-25T11:28:23;99178.22;;;0.88;84.30
70833;BME280;58452;59.418;17.962;2023-03-25T11:33:35;99188.34;;;0.99;85.35
70833;BME280;58452;59.418;17.962;2023-03-25T11:36:12;99180.25;;;1.17;84.86
70833;BME280;58452;59.418;17.962;2023-03-25T11:38:45;99173.13;;;0.88;85.17
70833;BME280;58452;59.418;17.962;2023-03-25T11:41:12;99176.63;;;0.87;85.11
70833;BME280;58452;59.418;17.962;2023-03-25T11:43:38;99180.06;;;0.97;85.29
70833;BME280;58452;59.418;17.962;2023-03-25T11:46:13;99194.75;;;0.83;85.07
70833;BME280;58452;59.418;17.962;2023-03-25T11:48:42;99193.44;;;0.88;85.42
70833;BME280;58452;59.418;17.962;2023-03-25T11:51:19;99207.78;;;0.78;85.95
70833;BME280;58452;59.418;17.962;2023-03-25T11:57:17;99235.38;;;0.83;85.95
70833;BME280;58452;59.418;17.962;2023-03-25T11:59:46;99221.16;;;0.91;85.64
70833;BME280;58452;59.418;17.962;2023-03-25T12:02:25;99218.84;;;0.66;86.07
70833;BME280;58452;59.418;17.962;2023-03-25T12:13:06;99254.06;;;0.60;87.14
70833;BME280;58452;59.418;17.962;2023-03-25T12:18:59;99254.41;;;0.66;86.48
70833;BME280;58452;59.418;17.962;2023-03-25T12:21:50;99259.47;;;0.66;85.74
70833;BME280;58452;59.418;17.962;2023-03-25T12:24:36;99262.00;;;0.66;85.56
70833;BME280;58452;59.418;17.962;2023-03-25T12:43:10;99270.81;;;0.73;83.35
70833;BME280;58452;59.418;17.962;2023-03-25T12:57:04;99269.44;;;0.91;84.26
70833;BME280;58452;59.418;17.962;2023-03-25T13:00:05;99266.31;;;0.99;83.43
70833;BME280;58452;59.418;17.962;2023-03-25T13:07:53;99278.38;;;1.07;83.90
70833;BME280;58452;59.418;17.962;2023-03-25T13:10:24;99282.44;;;1.09;83.36
70833;BME280;58452;59.418;17.962;2023-03-25T13:12:54;99270.56;;;0.98;83.69
70833;BME280;58452;59.418;17.962;2023-03-25T13:18:02;99273.13;;;0.65;83.94
70833;BME280;58452;59.418;17.962;2023-03-25T13:20:35;99274.84;;;0.65;83.62
70833;BME280;58452;59.418;17.962;2023-03-25T13:23:04;99277.72;;;0.71;84.77
70833;BME280;58452;59.418;17.962;2023-03-25T13:26:05;99282.81;;;0.71;84.18
70833;BME280;58452;59.418;17.962;2023-03-25T13:28:39;99285.09;;;0.63;84.05
70833;BME280;58452;59.418;17.962;2023-03-25T13:31:19;99288.59;;;0.62;85.00
70833;BME280;58452;59.418;17.962;2023-03-25T13:34:17;99288.78;;;0.59;85.29
70833;BME280;58452;59.418;17.962;2023-03-25T13:36:51;99291.88;;;0.52;85.20
70833;BME280;58452;59.418;17.962;2023-03-25T13:39:45;99289.59;;;0.60;85.61
70833;BME280;58452;59.418;17.962;2023-03-25T13:42:35;99287.88;;;0.71;84.39
70833;BME280;58452;59.418;17.962;2023-03-25T13:45:04;99295.81;;;0.44;84.37
70833;BME280;58452;59.418;17.962;2023-03-25T13:47:36;99297.88;;;0.39;84.74
70833;BME280;58452;59.418;17.962;2023-03-25T13:50:15;99300.78;;;0.46;84.38
70833;BME280;58452;59.418;17.962;2023-03-25T13:52:49;99296.63;;;0.45;85.34
70833;BME280;58452;59.418;17.962;2023-03-25T13:55:20;99297.66;;;0.42;85.36
70833;BME280;58452;59.418;17.962;2023-03-25T14:05:53;99299.19;;;0.67;84.79
70833;BME280;58452;59.418;17.962;2023-03-25T14:08:30;99296.28;;;0.61;85.14
70833;BME280;58452;59.418;17.962;2023-03-25T14:11:18;99293.50;;;0.53;85.68
70833;BME280;58452;59.418;17.962;2023-03-25T14:13:52;99295.19;;;0.30;86.40
70833;BME280;58452;59.418;17.962;2023-03-25T14:16:23;99300.28;;;0.41;85.61
70833;BME280;58452;59.418;17.962;2023-03-25T14:19:06;99297.44;;;0.45;85.63
70833;BME280;58452;59.418;17.962;2023-03-25T14:26:42;99294.75;;;0.25;85.82
70833;BME280;58452;59.418;17.962;2023-03-25T14:29:28;99296.50;;;0.35;86.71
70833;BME280;58452;59.418;17.962;2023-03-25T14:32:01;99305.84;;;0.35;85.98
70833;BME280;58452;59.418;17.962;2023-03-25T14:34:27;99302.84;;;0.41;86.62
70833;BME280;58452;59.418;17.962;2023-03-25T14:44:19;99298.13;;;0.36;85.33
70833;BME280;58452;59.418;17.962;2023-03-25T14:46:45;99298.00;;;0.49;85.36
70833;BME280;58452;59.418;17.962;2023-03-25T14:49:21;99308.28;;;0.36;84.89
70833;BME280;58452;59.418;17.962;2023-03-25T14:51:53;99299.38;;;0.31;85.44
70833;BME280;58452;59.418;17.962;2023-03-25T14:54:33;99304.94;;;0.47;85.56
70833;BME280;58452;59.418;17.962;2023-03-25T14:57:18;99305.03;;;0.34;84.95
70833;BME280;58452;59.418;17.962;2023-03-25T14:59:59;99314.09;;;0.26;85.17
70833;BME280;58452;59.418;17.962;2023-03-25T15:02:34;99303.28;;;0.24;84.99
70833;BME280;58452;59.418;17.962;2023-03-25T15:13:29;99308.75;;;0.07;86.35
70833;BME280;58452;59.418;17.962;2023-03-25T15:16:12;99316.72;;;0.13;86.24
70833;BME280;58452;59.418;17.962;2023-03-25T15:23:43;99319.06;;;0.27;85.98
70833;BME280;58452;59.418;17.962;2023-03-25T15:26:33;99322.91;;;0.33;84.97
70833;BME280;58452;59.418;17.962;2023-03-25T15:54:27;99326.66;;;-0.19;86.84
70833;BME280;58452;59.418;17.962;2023-03-25T15:56:58;99334.38;;;-0.33;86.49
70833;BME280;58452;59.418;17.962;2023-03-25T15:59:46;99335.78;;;-0.29;86.81
70833;BME280;58452;59.418;17.962;2023-03-25T16:05:07;99342.13;;;-0.34;87.36
70833;BME280;58452;59.418;17.962;2023-03-25T16:07:34;99348.59;;;-0.30;86.43
70833;BME280;58452;59.418;17.962;2023-03-25T16:10:47;99351.28;;;-0.44;87.26
70833;BME280;58452;59.418;17.962;2023-03-25T16:12:55;99362.19;;;-0.44;86.87
70833;BME280;58452;59.418;17.962;2023-03-25T16:15:29;99364.41;;;-0.39;86.37
70833;BME280;58452;59.418;17.962;2023-03-25T16:17:56;99367.34;;;-0.33;85.94
70833;BME280;58452;59.418;17.962;2023-03-25T16:20:25;99374.16;;;-0.33;86.09
70833;BME280;58452;59.418;17.962;2023-03-25T16:22:53;99368.50;;;-0.37;87.17
70833;BME280;58452;59.418;17.962;2023-03-25T16:25:25;99368.59;;;-0.51;87.37